This is the latest recevied weather packets stored in our database for station/object PY2FGD-13. If no packets are shown the sender has not sent any weather packets the latest 10 day(s).
| Time | Temp. | Humidity | Pressure | Rain* | Wind** | Luminosity | Snow |
|---|---|---|---|---|---|---|---|
| 1777266470 | 23.33° C | 49% | 1010.5 hPa | - | - | - | - |
| 1777264653 | 25° C | 65% | 1010.5 hPa | - | - | - | - |
| 1777262855 | 25.56° C | 71% | 1010.8 hPa | - | - | - | - |
| 1777259254 | 25.56° C | 72% | 1011.3 hPa | - | - | - | - |
| 1777249653 | 23.89° C | 69% | 1011.4 hPa | - | - | - | - |
| 1777248454 | 24.44° C | 68% | 1011.4 hPa | - | - | - | - |
| 1777246053 | 24.44° C | 66% | 1011.1 hPa | - | - | - | - |
| 1777244855 | 24.44° C | 65% | 1011 hPa | - | - | - | - |
| 1777244253 | 25° C | 66% | 1010.8 hPa | - | - | - | - |
| 1777240653 | 25.56° C | 65% | 1010.1 hPa | - | - | - | - |
| 1777236453 | 26.11° C | 58% | 1009.6 hPa | - | - | - | - |
| 1777232253 | 26.11° C | 57% | 1008.9 hPa | - | - | - | - |
| 1777231653 | 26.11° C | 56% | 1008.8 hPa | - | - | - | - |
| 1777230453 | 26.11° C | 57% | 1009 hPa | - | - | - | - |
| 1777214852 | 25° C | 63% | 1011.1 hPa | - | - | - | - |
| 1777214253 | 25° C | 65% | 1011.3 hPa | - | - | - | - |
| 1777212453 | 24.44° C | 68% | 1012.1 hPa | - | - | - | - |
| 1777210052 | 24.44° C | 71% | 1012.7 hPa | - | - | - | - |
| 1777209470 | 24.44° C | 71% | 1012.9 hPa | - | - | - | - |
| 1777206452 | 23.33° C | 74% | 1013.2 hPa | - | - | - | - |
| 1777205252 | 22.78° C | 77% | 1013.6 hPa | - | - | - | - |
| 1777199852 | 23.33° C | 68% | 1012.9 hPa | - | - | - | - |
| 1777197467 | 23.33° C | 68% | 1012.5 hPa | - | - | - | - |
| 1777195652 | 23.33° C | 67% | 1012.1 hPa | - | - | - | - |
| 1777191468 | 23.89° C | 66% | 1011 hPa | - | - | - | - |
* Rain since midnight (hover to see other rain measurements)
** Current wind speed in m/s (hover to see current wind gust speed)